Time;durP1;ratioP1;P1;durP2;ratioP2;P2;SDS_P1;SDS_P2;PMS_P1;PMS_P2;Temp;Humidity;BMP_temperature;BMP_pressure;BME280_temperature;BME280_humidity;BME280_pressure;Samples;Min_cycle;Max_cycle;Signal;HPM_P1;HPM_P2
2023/08/05 00:02:18;;;;;;;4.18;0.77;;;14.10;99.90;;;;;;5033966;28;20120;-70
2023/08/05 00:04:44;;;;;;;2.55;1.08;;;14.20;99.90;;;;;;5072546;28;20041;-70
2023/08/05 00:07:09;;;;;;;3.20;1.00;;;14.20;99.90;;;;;;5039491;28;20048;-70
2023/08/05 00:09:35;;;;;;;3.33;1.00;;;14.20;99.90;;;;;;5041440;28;20403;-70
2023/08/05 00:12:01;;;;;;;6.32;1.00;;;14.20;99.90;;;;;;5041234;28;20421;-70
2023/08/05 00:14:26;;;;;;;3.92;1.02;;;14.30;99.90;;;;;;5042709;28;20037;-70
2023/08/05 00:16:52;;;;;;;2.35;1.10;;;14.20;99.90;;;;;;5040885;28;20033;-70
2023/08/05 00:19:17;;;;;;;1.65;0.70;;;14.30;99.90;;;;;;5040629;28;20051;-70
2023/08/05 00:21:43;;;;;;;2.80;1.23;;;14.30;99.90;;;;;;5040747;28;20377;-70
2023/08/05 00:24:08;;;;;;;3.85;0.80;;;14.30;99.90;;;;;;5042149;28;20068;-70
2023/08/05 00:26:34;;;;;;;2.78;0.90;;;14.30;99.90;;;;;;5076908;28;20049;-70
2023/08/05 00:29:00;;;;;;;2.53;0.85;;;14.30;99.90;;;;;;5070091;28;20079;-70
2023/08/05 00:31:25;;;;;;;2.55;1.27;;;14.30;99.90;;;;;;5044887;28;20167;-70
2023/08/05 00:33:51;;;;;;;3.25;1.35;;;14.30;99.90;;;;;;5059750;28;20041;-70
2023/08/05 00:36:17;;;;;;;1.60;0.80;;;14.30;99.90;;;;;;5043277;28;20032;-70
2023/08/05 00:38:42;;;;;;;2.47;1.00;;;14.30;99.90;;;;;;5041974;28;20044;-70
2023/08/05 00:41:08;;;;;;;2.53;1.10;;;14.30;99.90;;;;;;5045065;28;20053;-70
2023/08/05 00:43:33;;;;;;;3.03;1.25;;;14.30;99.90;;;;;;5042985;28;20507;-70
2023/08/05 00:46:00;;;;;;;3.45;1.20;;;14.30;99.90;;;;;;5044044;28;20041;-70
2023/08/05 00:48:26;;;;;;;2.88;0.95;;;14.30;99.90;;;;;;5040537;28;20047;-70
2023/08/05 00:50:54;;;;;;;3.35;1.50;;;14.30;99.90;;;;;;5043047;28;20474;-70
2023/08/05 00:53:23;;;;;;;2.80;1.13;;;14.40;99.90;;;;;;5057413;28;20041;-70
2023/08/05 00:55:53;;;;;;;3.53;1.00;;;14.40;99.90;;;;;;5042347;28;20434;-70
2023/08/05 00:58:20;;;;;;;3.42;1.13;;;14.40;99.90;;;;;;5069956;28;20029;-70
2023/08/05 01:00:46;;;;;;;5.78;1.23;;;14.40;99.90;;;;;;5044335;28;20091;-70
2023/08/05 01:03:12;;;;;;;2.72;1.30;;;14.40;99.90;;;;;;5074064;28;20056;-70
2023/08/05 01:05:38;;;;;;;3.35;1.50;;;14.40;99.90;;;;;;5076023;28;20057;-70
2023/08/05 01:08:05;;;;;;;3.38;1.38;;;14.40;99.90;;;;;;5075375;28;21541;-70
2023/08/05 01:10:31;;;;;;;3.58;1.30;;;14.40;99.90;;;;;;5045168;28;20118;-70
2023/08/05 01:12:57;;;;;;;2.70;1.30;;;14.30;99.90;;;;;;5043009;28;20072;-70
2023/08/05 01:15:22;;;;;;;3.00;1.13;;;14.40;99.90;;;;;;5043571;28;20041;-70
2023/08/05 01:17:52;;;;;;;4.05;1.30;;;14.40;99.90;;;;;;5045297;28;20037;-70
2023/08/05 01:20:20;;;;;;;4.43;1.65;;;14.40;99.90;;;;;;5047217;28;20116;-70
2023/08/05 01:22:50;;;;;;;5.90;1.50;;;14.40;99.90;;;;;;5038899;28;20044;-70
2023/08/05 01:25:26;;;;;;;2.97;1.52;;;14.40;99.90;;;;;;5042878;28;20042;-70
2023/08/05 01:27:53;;;;;;;3.58;1.45;;;14.40;99.90;;;;;;5039319;28;20044;-70
2023/08/05 01:30:22;;;;;;;3.63;1.23;;;14.40;99.90;;;;;;5042075;28;20040;-70
2023/08/05 01:32:49;;;;;;;2.58;1.38;;;14.40;99.90;;;;;;5059051;28;20040;-70
2023/08/05 01:35:15;;;;;;;2.83;1.20;;;14.40;99.90;;;;;;5042986;28;20036;-70
2023/08/05 01:37:40;;;;;;;2.83;1.30;;;14.40;99.90;;;;;;5039746;28;20115;-70
2023/08/05 01:40:06;;;;;;;4.40;1.40;;;14.40;99.90;;;;;;5040844;28;20045;-70
2023/08/05 01:42:32;;;;;;;3.38;1.42;;;14.40;99.90;;;;;;5043152;28;21095;-70
2023/08/05 01:44:57;;;;;;;4.40;1.33;;;14.40;99.90;;;;;;5037675;28;20136;-70
2023/08/05 01:47:23;;;;;;;4.50;1.73;;;14.40;99.90;;;;;;5043595;28;20124;-70
2023/08/05 01:49:49;;;;;;;3.40;1.65;;;14.40;99.90;;;;;;5044569;28;20025;-70
2023/08/05 01:52:14;;;;;;;3.60;1.60;;;14.40;99.90;;;;;;5026639;28;20095;-70
2023/08/05 01:54:40;;;;;;;2.95;1.48;;;14.30;99.90;;;;;;5042694;28;20032;-70
2023/08/05 01:57:06;;;;;;;4.13;1.90;;;14.30;99.90;;;;;;5038875;28;20759;-70
2023/08/05 01:59:31;;;;;;;3.10;1.45;;;14.30;99.90;;;;;;5041360;28;20633;-70
2023/08/05 02:01:57;;;;;;;3.28;1.23;;;14.30;99.90;;;;;;5043985;28;20090;-70
2023/08/05 02:04:22;;;;;;;2.83;1.23;;;14.20;99.90;;;;;;5073347;28;20059;-70
2023/08/05 02:06:48;;;;;;;3.20;1.55;;;14.30;99.90;;;;;;5044311;28;20288;-70
2023/08/05 02:09:14;;;;;;;5.80;1.73;;;14.20;99.90;;;;;;5041741;28;20038;-71
2023/08/05 02:11:39;;;;;;;3.50;1.40;;;14.20;99.90;;;;;;5042708;28;20048;-70
2023/08/05 02:14:05;;;;;;;3.17;1.48;;;14.20;99.90;;;;;;5078016;28;20037;-70
2023/08/05 02:16:34;;;;;;;3.45;1.40;;;14.20;99.90;;;;;;5041573;28;20055;-70
2023/08/05 02:18:59;;;;;;;3.72;1.05;;;14.10;99.90;;;;;;5024998;28;20090;-70
2023/08/05 02:21:25;;;;;;;4.25;1.65;;;14.10;99.90;;;;;;5042362;28;20319;-70
2023/08/05 02:23:52;;;;;;;3.25;1.30;;;14.10;99.90;;;;;;5073926;28;20446;-70
2023/08/05 02:26:18;;;;;;;3.47;1.30;;;14.00;99.90;;;;;;5025728;28;20095;-70
2023/08/05 02:28:46;;;;;;;4.53;1.48;;;13.90;99.90;;;;;;5041652;28;20488;-70
2023/08/05 02:31:12;;;;;;;4.40;1.52;;;13.80;99.90;;;;;;5044257;28;20075;-70
2023/08/05 02:33:38;;;;;;;2.72;1.17;;;13.80;99.90;;;;;;5041916;28;20098;-70
2023/08/05 02:36:04;;;;;;;4.60;1.75;;;13.80;99.90;;;;;;5044213;28;20059;-70
2023/08/05 02:38:29;;;;;;;2.28;1.30;;;13.70;99.90;;;;;;5041805;28;20095;-70
2023/08/05 02:40:57;;;;;;;6.53;1.75;;;13.70;99.90;;;;;;5043227;28;20039;-70
2023/08/05 02:43:22;;;;;;;3.33;1.60;;;13.70;99.90;;;;;;5074336;28;20520;-70
2023/08/05 02:45:57;;;;;;;3.30;1.52;;;13.70;99.90;;;;;;5042442;28;20041;-70
2023/08/05 02:48:27;;;;;;;4.43;1.92;;;13.70;99.90;;;;;;5069691;28;20491;-70
2023/08/05 02:50:53;;;;;;;3.00;1.20;;;13.70;99.90;;;;;;5041430;28;20041;-70
2023/08/05 02:53:20;;;;;;;3.15;1.48;;;13.70;99.90;;;;;;5021797;28;20458;-70
2023/08/05 02:55:46;;;;;;;4.65;1.75;;;13.70;99.90;;;;;;5040814;28;20554;-70
2023/08/05 02:58:13;;;;;;;3.10;1.42;;;13.70;99.90;;;;;;5038645;28;20025;-70
2023/08/05 03:00:39;;;;;;;4.60;2.00;;;13.70;99.90;;;;;;5041104;28;20037;-70
2023/08/05 03:03:09;;;;;;;3.05;1.48;;;13.70;99.90;;;;;;5024736;28;20112;-70
2023/08/05 03:05:35;;;;;;;4.82;1.58;;;13.70;99.90;;;;;;5040103;28;20406;-70
2023/08/05 03:08:00;;;;;;;3.97;1.70;;;13.60;99.90;;;;;;5039317;28;20033;-70
2023/08/05 03:10:26;;;;;;;5.13;1.63;;;13.60;99.90;;;;;;5042996;28;20632;-70
2023/08/05 03:12:52;;;;;;;3.55;1.35;;;13.70;99.90;;;;;;5071346;28;20032;-70
2023/08/05 03:15:17;;;;;;;6.05;1.73;;;13.60;99.90;;;;;;5039821;28;20090;-70
2023/08/05 03:17:43;;;;;;;6.07;1.70;;;13.70;99.90;;;;;;5042925;28;20565;-70
2023/08/05 03:20:27;;;;;;;4.63;1.52;;;13.60;99.90;;;;;;5039735;28;20075;-70
2023/08/05 03:22:53;;;;;;;3.17;1.60;;;13.70;99.90;;;;;;5070663;28;20439;-70
2023/08/05 03:25:23;;;;;;;3.40;1.52;;;13.70;99.90;;;;;;5040264;28;20045;-70
2023/08/05 03:27:49;;;;;;;5.25;1.48;;;13.70;99.90;;;;;;5021721;28;20092;-70
2023/08/05 03:30:15;;;;;;;3.08;1.25;;;13.70;99.90;;;;;;5072850;28;20044;-70
2023/08/05 03:32:41;;;;;;;3.88;1.45;;;13.70;99.90;;;;;;5040955;28;20037;-70
2023/08/05 03:35:07;;;;;;;2.90;1.38;;;13.70;99.90;;;;;;5042193;28;20548;-70
2023/08/05 03:37:33;;;;;;;3.45;1.58;;;13.70;99.90;;;;;;5038936;28;20068;-70
2023/08/05 03:39:58;;;;;;;3.40;1.23;;;13.70;99.90;;;;;;5040759;28;20510;-71
2023/08/05 03:42:24;;;;;;;3.50;1.40;;;13.80;99.90;;;;;;5041296;28;20260;-71
2023/08/05 03:44:49;;;;;;;3.65;0.90;;;13.80;99.90;;;;;;5073925;28;20091;-71
2023/08/05 03:47:15;;;;;;;2.60;1.58;;;13.80;99.90;;;;;;5039818;28;20041;-71
2023/08/05 03:49:41;;;;;;;3.72;1.63;;;13.80;99.90;;;;;;5036351;28;20037;-71
2023/08/05 03:52:08;;;;;;;3.60;1.38;;;13.80;99.90;;;;;;5072475;28;20041;-71
2023/08/05 03:54:33;;;;;;;3.33;1.38;;;13.80;99.90;;;;;;5036041;28;20453;-71
2023/08/05 03:56:59;;;;;;;4.60;1.50;;;13.90;99.90;;;;;;5039461;28;20057;-71
2023/08/05 03:59:25;;;;;;;4.35;1.77;;;13.90;99.90;;;;;;5045121;28;20033;-71
2023/08/05 04:01:51;;;;;;;4.40;1.30;;;13.90;99.90;;;;;;5046028;28;20526;-71
2023/08/05 04:04:17;;;;;;;5.70;1.38;;;13.90;99.90;;;;;;5045567;28;20029;-70
2023/08/05 04:06:43;;;;;;;4.35;1.20;;;13.90;99.90;;;;;;5045579;28;20087;-71
2023/08/05 04:09:08;;;;;;;3.05;1.42;;;13.90;99.90;;;;;;5041327;28;20087;-70
2023/08/05 04:11:35;;;;;;;4.10;1.42;;;13.90;99.90;;;;;;5044892;28;20052;-70
2023/08/05 04:14:03;;;;;;;6.03;1.60;;;14.00;99.90;;;;;;5041324;28;20053;-70
2023/08/05 04:16:29;;;;;;;3.55;1.50;;;13.90;99.90;;;;;;5048196;28;20046;-70
2023/08/05 04:18:55;;;;;;;3.88;1.63;;;14.00;99.90;;;;;;5041051;28;20048;-70
2023/08/05 04:21:27;;;;;;;5.45;1.45;;;14.00;99.90;;;;;;5043330;28;20051;-70
2023/08/05 04:23:54;;;;;;;4.80;1.60;;;14.00;99.90;;;;;;5041866;28;20251;-71
2023/08/05 04:26:20;;;;;;;6.43;1.42;;;14.00;99.90;;;;;;5077419;28;20449;-71
2023/08/05 04:28:46;;;;;;;4.43;1.60;;;14.00;99.90;;;;;;5042890;28;20071;-71
2023/08/05 04:31:12;;;;;;;3.40;1.38;;;13.90;99.90;;;;;;5045764;28;20036;-71
2023/08/05 04:33:37;;;;;;;3.80;1.55;;;13.90;99.90;;;;;;5042351;28;20045;-71
2023/08/05 04:36:03;;;;;;;4.97;1.77;;;13.90;99.90;;;;;;5043163;28;20029;-71
2023/08/05 04:38:30;;;;;;;4.70;1.85;;;13.90;99.90;;;;;;5042357;28;20055;-71
2023/08/05 04:40:55;;;;;;;5.03;1.40;;;14.00;99.90;;;;;;5044439;28;20040;-71
2023/08/05 04:43:21;;;;;;;4.60;1.52;;;14.00;99.90;;;;;;5044220;28;20041;-70
2023/08/05 04:45:50;;;;;;;4.60;1.60;;;14.10;99.90;;;;;;5057967;28;20585;-71
2023/08/05 04:48:17;;;;;;;6.60;1.77;;;14.10;99.90;;;;;;5075022;28;20048;-71
2023/08/05 04:50:43;;;;;;;2.70;1.25;;;14.10;99.90;;;;;;5045984;28;20041;-71
2023/08/05 04:53:09;;;;;;;3.28;1.30;;;14.10;99.90;;;;;;5071946;28;20109;-71
2023/08/05 04:55:34;;;;;;;3.22;1.60;;;14.10;99.90;;;;;;5042287;28;20036;-71
2023/08/05 04:58:01;;;;;;;4.07;1.55;;;14.10;99.90;;;;;;5043746;28;20048;-71
2023/08/05 05:00:27;;;;;;;3.22;1.30;;;14.10;99.90;;;;;;5042131;28;20172;-71
2023/08/05 05:02:53;;;;;;;4.88;1.50;;;14.10;99.90;;;;;;5040914;28;20508;-71
2023/08/05 05:05:18;;;;;;;3.63;1.15;;;14.10;99.90;;;;;;5042477;28;20040;-71
2023/08/05 05:07:44;;;;;;;2.92;1.33;;;14.10;99.90;;;;;;5073738;28;20511;-71
2023/08/05 05:10:09;;;;;;;3.13;1.30;;;14.20;99.90;;;;;;5073843;28;20629;-71
2023/08/05 05:12:35;;;;;;;4.57;1.58;;;14.20;99.90;;;;;;5038624;28;20513;-71
2023/08/05 05:15:01;;;;;;;2.67;1.10;;;14.20;99.90;;;;;;5043114;28;20482;-71
2023/08/05 05:17:33;;;;;;;3.25;1.20;;;14.20;99.90;;;;;;5042521;28;20513;-71
2023/08/05 05:19:58;;;;;;;2.65;1.17;;;14.20;99.90;;;;;;5041027;28;20468;-71
2023/08/05 05:22:24;;;;;;;3.00;1.40;;;14.30;99.90;;;;;;5075963;28;20123;-71
2023/08/05 05:24:50;;;;;;;3.92;1.25;;;14.30;99.90;;;;;;5041526;28;20095;-71
2023/08/05 05:27:17;;;;;;;2.75;1.10;;;14.40;99.90;;;;;;5025814;28;20133;-71
2023/08/05 05:29:43;;;;;;;4.85;1.50;;;14.40;99.90;;;;;;5041805;28;20147;-71
2023/08/05 05:32:09;;;;;;;3.08;1.33;;;14.40;99.90;;;;;;5072359;28;20060;-71
2023/08/05 05:34:35;;;;;;;2.20;1.20;;;14.50;99.90;;;;;;5042378;28;20048;-71
2023/08/05 05:37:00;;;;;;;2.33;1.00;;;14.50;99.90;;;;;;5044500;28;20033;-71
2023/08/05 05:39:26;;;;;;;5.47;1.38;;;14.60;99.90;;;;;;5042688;28;20033;-71
2023/08/05 05:41:52;;;;;;;3.35;1.30;;;14.70;99.90;;;;;;5043159;28;20091;-71
2023/08/05 05:44:18;;;;;;;2.15;0.93;;;14.80;99.90;;;;;;5041878;28;20076;-71
2023/08/05 05:46:44;;;;;;;2.88;1.15;;;14.80;99.90;;;;;;5043813;28;20211;-71
2023/08/05 05:49:10;;;;;;;2.67;1.13;;;14.90;99.90;;;;;;5042771;28;20459;-71
2023/08/05 05:51:36;;;;;;;4.97;2.15;;;14.90;99.90;;;;;;5040084;28;20253;-71
2023/08/05 05:54:02;;;;;;;3.13;1.33;;;14.90;99.90;;;;;;5074871;28;20047;-71
2023/08/05 05:56:28;;;;;;;3.35;1.05;;;14.90;99.90;;;;;;5041205;28;20120;-71
2023/08/05 05:58:54;;;;;;;3.05;1.20;;;14.90;99.90;;;;;;5040208;28;20718;-71
2023/08/05 06:01:20;;;;;;;5.68;1.40;;;14.90;99.90;;;;;;5039315;28;20036;-71
2023/08/05 06:03:46;;;;;;;6.43;1.27;;;15.00;99.90;;;;;;5041117;28;20049;-71
2023/08/05 06:06:12;;;;;;;3.90;1.50;;;15.00;99.90;;;;;;5042775;28;20033;-71
2023/08/05 06:08:38;;;;;;;2.33;1.17;;;15.00;99.90;;;;;;5040841;28;20045;-71
2023/08/05 06:11:04;;;;;;;3.03;1.30;;;15.10;99.90;;;;;;5072838;28;20041;-71
2023/08/05 06:13:30;;;;;;;2.15;1.20;;;15.10;99.90;;;;;;5043725;28;20044;-71
2023/08/05 06:15:56;;;;;;;3.30;1.15;;;15.10;99.90;;;;;;5075139;28;20439;-71
2023/08/05 06:18:21;;;;;;;2.78;1.00;;;15.20;99.90;;;;;;5025035;28;20037;-71
2023/08/05 06:20:48;;;;;;;3.35;1.30;;;15.20;99.90;;;;;;5042059;28;20370;-71
2023/08/05 06:23:14;;;;;;;6.50;1.30;;;15.20;99.90;;;;;;5044145;28;20275;-71
2023/08/05 06:25:40;;;;;;;3.78;1.17;;;15.30;99.90;;;;;;5030258;28;20191;-71
2023/08/05 06:28:06;;;;;;;2.38;1.17;;;15.40;99.90;;;;;;5040601;28;20037;-71
2023/08/05 06:30:32;;;;;;;3.08;1.20;;;15.40;99.90;;;;;;5038389;28;20064;-71
2023/08/05 06:32:57;;;;;;;4.13;1.05;;;15.40;99.90;;;;;;5035858;28;20118;-71
2023/08/05 06:35:23;;;;;;;3.35;1.15;;;15.30;99.90;;;;;;5073139;28;20044;-71
2023/08/05 06:37:49;;;;;;;2.92;1.13;;;15.40;99.90;;;;;;5023404;28;20041;-71
2023/08/05 06:40:15;;;;;;;2.80;1.20;;;15.80;99.90;;;;;;5039153;28;20045;-71
2023/08/05 06:42:41;;;;;;;4.57;1.52;;;16.70;99.90;;;;;;5040301;28;20445;-71
2023/08/05 06:45:08;;;;;;;4.82;1.30;;;17.50;99.90;;;;;;5040868;28;20037;-72
2023/08/05 06:47:35;;;;;;;2.40;1.00;;;17.90;99.90;;;;;;5068867;28;20625;-71
2023/08/05 06:50:03;;;;;;;2.78;1.10;;;17.90;99.90;;;;;;5016142;28;20049;-71
2023/08/05 06:52:28;;;;;;;3.08;0.88;;;17.70;99.90;;;;;;5040069;28;20037;-71
2023/08/05 06:54:55;;;;;;;3.72;1.25;;;17.60;99.90;;;;;;5069431;28;20037;-71
2023/08/05 06:57:21;;;;;;;6.05;1.02;;;17.30;99.90;;;;;;5038352;28;20063;-71
2023/08/05 06:59:47;;;;;;;2.42;1.17;;;17.10;99.90;;;;;;5038860;28;20409;-72
2023/08/05 07:02:12;;;;;;;3.22;1.50;;;16.90;99.90;;;;;;5069521;28;20060;-72
2023/08/05 07:04:38;;;;;;;2.13;0.75;;;16.70;99.90;;;;;;5033922;28;20421;-71
2023/08/05 07:07:04;;;;;;;3.33;0.93;;;16.60;99.90;;;;;;5018709;28;20461;-71
2023/08/05 07:09:31;;;;;;;2.42;1.13;;;16.50;99.90;;;;;;5038225;28;20052;-71
2023/08/05 07:11:56;;;;;;;4.30;1.08;;;16.50;99.90;;;;;;5040471;28;20077;-71
2023/08/05 07:14:22;;;;;;;3.97;1.00;;;16.50;99.90;;;;;;5039097;28;20076;-71
2023/08/05 07:16:47;;;;;;;2.08;0.95;;;16.40;99.90;;;;;;5037210;28;20037;-71
2023/08/05 07:19:13;;;;;;;5.47;1.13;;;16.40;99.90;;;;;;5041320;28;20270;-71
2023/08/05 07:21:38;;;;;;;3.92;1.10;;;16.40;99.90;;;;;;5055158;28;20792;-71
2023/08/05 07:24:04;;;;;;;4.03;1.02;;;16.40;99.90;;;;;;5043171;28;20069;-71
2023/08/05 07:26:30;;;;;;;2.10;1.02;;;16.30;99.90;;;;;;5036360;28;20057;-70
2023/08/05 07:28:55;;;;;;;5.63;1.30;;;16.30;99.90;;;;;;5038810;28;20045;-71
2023/08/05 07:31:21;;;;;;;2.67;0.85;;;16.30;99.90;;;;;;5040298;28;20414;-70
2023/08/05 07:33:48;;;;;;;4.40;1.20;;;16.30;99.90;;;;;;5040353;28;20029;-70
2023/08/05 07:36:17;;;;;;;3.42;1.10;;;16.30;99.90;;;;;;5041306;28;20366;-71
2023/08/05 07:38:45;;;;;;;2.25;1.13;;;16.30;99.90;;;;;;5035940;28;20047;-71
2023/08/05 07:41:15;;;;;;;2.25;1.00;;;16.30;99.90;;;;;;5073238;28;20534;-71
2023/08/05 07:43:42;;;;;;;2.45;1.15;;;16.30;99.90;;;;;;5040958;28;20068;-71
2023/08/05 07:46:11;;;;;;;4.80;1.20;;;16.40;99.90;;;;;;5041578;28;20071;-71
2023/08/05 07:48:39;;;;;;;2.25;1.10;;;16.50;99.90;;;;;;5050258;28;20041;-71
2023/08/05 07:51:06;;;;;;;3.60;1.05;;;16.60;99.90;;;;;;5033562;28;20037;-71
2023/08/05 07:53:35;;;;;;;2.33;1.20;;;16.70;99.90;;;;;;5036678;28;20044;-71
2023/08/05 07:56:11;;;;;;;2.58;1.27;;;16.80;99.90;;;;;;5040471;28;20041;-71
2023/08/05 07:58:42;;;;;;;3.08;1.23;;;16.80;99.90;;;;;;5068182;28;20036;-71
2023/08/05 08:01:08;;;;;;;5.05;1.23;;;16.90;99.90;;;;;;5073079;28;20128;-71
2023/08/05 08:03:34;;;;;;;2.53;1.40;;;17.00;99.90;;;;;;5043753;28;20029;-71
2023/08/05 08:06:00;;;;;;;3.38;1.02;;;17.10;99.90;;;;;;5041320;28;20138;-71
2023/08/05 08:08:26;;;;;;;4.00;1.20;;;17.20;99.90;;;;;;5040168;28;20558;-71
2023/08/05 08:10:51;;;;;;;2.10;0.85;;;17.10;99.90;;;;;;5038204;28;20068;-71
2023/08/05 08:13:17;;;;;;;4.07;1.15;;;17.10;99.90;;;;;;5038660;28;20040;-71
2023/08/05 08:15:43;;;;;;;4.22;1.00;;;17.10;99.90;;;;;;5040905;28;20450;-71
2023/08/05 08:18:08;;;;;;;2.72;0.80;;;17.10;99.90;;;;;;5037030;28;20116;-71
2023/08/05 08:20:34;;;;;;;2.05;0.93;;;17.00;99.90;;;;;;5035842;28;20076;-71
2023/08/05 08:23:00;;;;;;;2.95;1.08;;;17.00;99.90;;;;;;5063984;28;20510;-71
2023/08/05 08:25:25;;;;;;;2.45;1.10;;;17.00;99.90;;;;;;5035840;28;20175;-71
2023/08/05 08:27:51;;;;;;;2.35;1.08;;;17.00;99.90;;;;;;5033761;28;20053;-71
2023/08/05 08:30:16;;;;;;;3.15;1.00;;;17.00;99.90;;;;;;5046811;28;20128;-71
2023/08/05 08:32:42;;;;;;;2.28;1.00;;;17.00;99.90;;;;;;5034507;28;20029;-72
2023/08/05 08:35:08;;;;;;;2.72;0.90;;;17.00;99.90;;;;;;5035156;28;20048;-71
2023/08/05 08:37:34;;;;;;;3.22;0.90;;;17.00;99.90;;;;;;5066664;28;20044;-71
2023/08/05 08:39:59;;;;;;;3.47;1.08;;;17.10;99.90;;;;;;5033832;28;20029;-71
2023/08/05 08:42:26;;;;;;;2.97;0.98;;;17.10;99.90;;;;;;5036015;28;20088;-71
2023/08/05 08:44:53;;;;;;;2.55;1.00;;;17.20;99.90;;;;;;5034178;28;20601;-71
2023/08/05 08:47:20;;;;;;;4.13;0.95;;;17.10;99.90;;;;;;5073034;28;20037;-71
2023/08/05 08:49:47;;;;;;;2.72;1.20;;;17.30;99.90;;;;;;5039502;28;20091;-71
2023/08/05 08:52:16;;;;;;;2.90;0.90;;;17.30;99.90;;;;;;5021341;28;20426;-71
2023/08/05 08:54:43;;;;;;;1.98;0.90;;;17.50;99.90;;;;;;5040100;28;20037;-71
2023/08/05 08:57:09;;;;;;;3.55;1.02;;;17.50;99.90;;;;;;5034525;28;20052;-71
2023/08/05 08:59:35;;;;;;;4.47;1.40;;;17.50;99.90;;;;;;5041164;28;20049;-71
2023/08/05 09:02:02;;;;;;;3.95;1.25;;;17.60;99.90;;;;;;5043913;28;20040;-71
2023/08/05 09:04:30;;;;;;;2.25;1.00;;;17.60;99.90;;;;;;5035347;28;20449;-71
2023/08/05 09:06:56;;;;;;;1.90;1.00;;;17.60;99.90;;;;;;5038515;28;20052;-71
2023/08/05 09:09:22;;;;;;;1.35;0.70;;;17.60;99.90;;;;;;5036299;28;20486;-71
2023/08/05 09:11:48;;;;;;;2.53;1.00;;;17.60;99.90;;;;;;5041670;28;20037;-71
2023/08/05 09:14:16;;;;;;;1.60;0.80;;;17.60;99.90;;;;;;5040942;28;20037;-71
2023/08/05 09:16:59;;;;;;;2.20;1.00;;;17.70;99.90;;;;;;5043512;28;20037;-71
2023/08/05 09:19:29;;;;;;;2.10;1.00;;;17.70;99.90;;;;;;5040142;28;21589;-71
2023/08/05 09:21:55;;;;;;;2.28;0.88;;;17.80;99.90;;;;;;5036636;28;20479;-71
2023/08/05 09:24:24;;;;;;;3.50;1.02;;;17.80;99.90;;;;;;5039093;28;20059;-71
2023/08/05 09:26:55;;;;;;;3.58;1.10;;;17.80;99.90;;;;;;5037969;28;20057;-71
2023/08/05 09:29:22;;;;;;;1.92;0.88;;;17.80;99.90;;;;;;5072456;28;20800;-71
2023/08/05 09:32:01;;;;;;;2.80;1.30;;;17.80;99.90;;;;;;5069110;28;20037;-71
2023/08/05 09:34:37;;;;;;;2.08;0.88;;;17.80;99.90;;;;;;5035435;28;20127;-71
2023/08/05 09:37:05;;;;;;;2.75;1.00;;;17.80;99.90;;;;;;5070539;28;20044;-71
2023/08/05 09:39:45;;;;;;;4.22;1.00;;;17.80;99.90;;;;;;5050074;28;20045;-70
2023/08/05 09:42:24;;;;;;;2.63;0.77;;;17.80;99.90;;;;;;5055069;28;20041;-71
2023/08/05 09:44:55;;;;;;;2.03;0.88;;;17.80;99.90;;;;;;5062058;28;20342;-72
2023/08/05 09:47:25;;;;;;;2.22;0.88;;;17.80;99.90;;;;;;5032487;28;21705;-71
2023/08/05 09:49:52;;;;;;;1.58;0.70;;;17.80;99.90;;;;;;5033999;28;20470;-71
2023/08/05 09:52:20;;;;;;;2.15;1.05;;;17.90;99.90;;;;;;5034624;28;20128;-71
2023/08/05 09:55:13;;;;;;;2.08;0.90;;;17.90;99.90;;;;;;5033815;28;20075;-71
2023/08/05 09:57:39;;;;;;;1.95;0.90;;;18.00;99.90;;;;;;5035793;28;20498;-71
2023/08/05 10:00:08;;;;;;;3.92;0.90;;;18.10;99.90;;;;;;5066191;28;20044;-71
2023/08/05 10:02:35;;;;;;;3.03;0.80;;;18.20;99.90;;;;;;5031424;28;20131;-70
2023/08/05 10:05:02;;;;;;;1.55;0.68;;;18.30;99.90;;;;;;5029562;28;20064;-72
2023/08/05 10:07:28;;;;;;;1.67;1.00;;;18.20;99.90;;;;;;5032887;28;20033;-72
2023/08/05 10:09:55;;;;;;;2.25;0.80;;;18.20;99.90;;;;;;5061613;28;20077;-72
2023/08/05 10:12:25;;;;;;;2.72;0.70;;;18.20;99.90;;;;;;5032957;28;20033;-71
2023/08/05 10:14:52;;;;;;;1.92;0.90;;;18.20;99.90;;;;;;5033602;28;20510;-73
2023/08/05 10:17:18;;;;;;;2.67;0.95;;;18.20;99.90;;;;;;5034962;28;20068;-73
2023/08/05 10:19:47;;;;;;;2.70;1.00;;;18.30;99.90;;;;;;5030641;28;20037;-72
2023/08/05 10:22:13;;;;;;;2.78;1.00;;;18.40;99.90;;;;;;5063951;28;20036;-72
2023/08/05 10:24:58;;;;;;;1.77;0.98;;;18.40;99.90;;;;;;5032084;28;20041;-73
2023/08/05 10:27:38;;;;;;;1.40;0.80;;;18.50;99.90;;;;;;5031783;28;20061;-72
2023/08/05 10:30:09;;;;;;;2.65;1.20;;;18.50;99.90;;;;;;5029307;28;20706;-72
2023/08/05 10:32:35;;;;;;;2.55;0.77;;;18.60;99.90;;;;;;5035621;28;20659;-72
2023/08/05 10:35:24;;;;;;;1.77;0.90;;;18.60;99.90;;;;;;5025527;28;20129;-73
2023/08/05 10:37:50;;;;;;;4.03;1.25;;;18.60;99.90;;;;;;5031110;28;20055;-72
2023/08/05 10:40:39;;;;;;;2.55;1.48;;;18.60;99.90;;;;;;5066425;28;20029;-72
2023/08/05 10:43:05;;;;;;;1.90;0.73;;;18.70;99.90;;;;;;5035185;28;20570;-72
2023/08/05 10:45:35;;;;;;;1.65;0.75;;;18.70;99.90;;;;;;5033509;28;20127;-72
2023/08/05 10:48:08;;;;;;;3.63;1.02;;;18.70;99.90;;;;;;5032989;28;21301;-72
2023/08/05 10:50:38;;;;;;;3.45;0.90;;;18.70;99.90;;;;;;5027639;28;20904;-72
2023/08/05 10:53:09;;;;;;;1.70;0.95;;;18.70;99.90;;;;;;5034447;28;20036;-73
2023/08/05 10:55:55;;;;;;;1.65;0.70;;;18.70;99.90;;;;;;5027322;28;20072;-73
2023/08/05 10:58:28;;;;;;;2.97;1.35;;;18.70;99.90;;;;;;5031875;28;20033;-73
2023/08/05 11:01:00;;;;;;;2.47;1.08;;;18.70;99.90;;;;;;5037897;28;20116;-73
2023/08/05 11:03:39;;;;;;;3.63;1.05;;;18.70;99.90;;;;;;5069473;28;20075;-72
2023/08/05 11:06:05;;;;;;;5.15;1.55;;;18.80;99.90;;;;;;5035545;28;20040;-72
2023/08/05 11:08:33;;;;;;;2.70;1.42;;;18.90;99.90;;;;;;5033626;28;20036;-72
2023/08/05 11:11:03;;;;;;;3.72;1.23;;;18.90;99.90;;;;;;5036712;28;20036;-73
2023/08/05 11:13:43;;;;;;;5.80;1.23;;;19.00;99.90;;;;;;5033829;28;20087;-72
2023/08/05 11:16:18;;;;;;;3.15;1.20;;;19.00;99.90;;;;;;5028196;28;20045;-71
2023/08/05 11:18:56;;;;;;;4.55;1.48;;;19.10;99.90;;;;;;5020243;28;20037;-72
2023/08/05 11:21:22;;;;;;;3.72;1.33;;;19.10;99.90;;;;;;5033437;28;20419;-71
2023/08/05 11:23:48;;;;;;;3.95;1.45;;;19.10;99.90;;;;;;5065101;28;20045;-69
2023/08/05 11:26:14;;;;;;;3.05;1.30;;;19.10;99.90;;;;;;5033302;28;20632;-69
2023/08/05 11:28:46;;;;;;;2.35;1.00;;;19.10;99.90;;;;;;5069285;28;21670;-69
2023/08/05 11:31:25;;;;;;;2.28;1.05;;;19.10;99.90;;;;;;5033912;28;20122;-69
2023/08/05 11:33:52;;;;;;;4.43;1.42;;;19.10;99.90;;;;;;5033691;28;20435;-69
2023/08/05 11:36:28;;;;;;;3.08;1.40;;;19.20;99.90;;;;;;5036346;28;20491;-69
2023/08/05 11:38:57;;;;;;;4.10;1.70;;;19.20;99.90;;;;;;5036999;28;20032;-69
2023/08/05 11:41:24;;;;;;;3.42;1.58;;;19.20;99.90;;;;;;5037069;28;20037;-69
2023/08/05 11:43:50;;;;;;;4.40;2.10;;;19.30;99.90;;;;;;5071773;28;20104;-69
2023/08/05 11:46:26;;;;;;;5.65;2.35;;;19.30;99.90;;;;;;5068863;28;20041;-70
2023/08/05 11:49:12;;;;;;;3.80;1.92;;;19.40;99.90;;;;;;5035925;28;20372;-70
2023/08/05 11:51:51;;;;;;;2.97;1.75;;;19.40;99.90;;;;;;5036207;28;20032;-70
2023/08/05 11:54:32;;;;;;;6.47;2.40;;;19.40;99.90;;;;;;5034781;28;20706;-70
2023/08/05 11:56:58;;;;;;;4.25;2.28;;;19.50;99.90;;;;;;5033210;28;20507;-72
2023/08/05 11:59:43;;;;;;;5.90;2.10;;;19.50;99.90;;;;;;5035587;28;20033;-71
2023/08/05 12:02:10;;;;;;;3.90;2.03;;;19.40;99.90;;;;;;5014260;28;20036;-72
2023/08/05 12:04:45;;;;;;;5.78;2.45;;;19.40;99.90;;;;;;5037494;28;20375;-72
2023/08/05 12:07:12;;;;;;;6.20;2.50;;;19.40;99.90;;;;;;5031911;28;20483;-71
2023/08/05 12:09:38;;;;;;;6.35;2.78;;;19.40;99.90;;;;;;5003896;28;20180;-71
2023/08/05 12:12:05;;;;;;;4.88;2.85;;;19.30;99.90;;;;;;5037484;28;20171;-71
2023/08/05 12:14:30;;;;;;;6.38;2.95;;;19.30;99.90;;;;;;5039999;28;20071;-72
2023/08/05 12:16:59;;;;;;;7.82;2.97;;;19.30;99.90;;;;;;5051654;28;20496;-71
2023/08/05 12:19:29;;;;;;;6.65;3.30;;;19.30;99.90;;;;;;5023215;28;20047;-72
2023/08/05 12:21:54;;;;;;;7.90;3.63;;;19.20;99.90;;;;;;5048973;28;20124;-71
2023/08/05 12:24:20;;;;;;;5.10;2.90;;;19.20;99.90;;;;;;5052383;28;20033;-72
2023/08/05 12:26:46;;;;;;;5.43;3.05;;;19.20;99.90;;;;;;5038229;28;20044;-71
2023/08/05 12:29:11;;;;;;;8.70;3.75;;;19.10;99.90;;;;;;5040126;28;20882;-71
2023/08/05 12:31:37;;;;;;;10.57;4.30;;;19.10;99.90;;;;;;5041552;28;20502;-71
2023/08/05 12:34:02;;;;;;;11.65;4.15;;;19.00;99.90;;;;;;5037538;28;20509;-72
2023/08/05 12:36:28;;;;;;;9.45;4.03;;;18.90;99.90;;;;;;5041060;28;20028;-72
2023/08/05 12:38:54;;;;;;;10.02;4.53;;;18.90;99.90;;;;;;5022464;28;20158;-73
2023/08/05 12:41:20;;;;;;;8.30;4.15;;;18.90;99.90;;;;;;5057192;28;20086;-72
2023/08/05 12:43:45;;;;;;;9.73;4.15;;;19.00;99.90;;;;;;5037899;28;20033;-72
2023/08/05 12:46:11;;;;;;;8.77;4.53;;;19.00;99.90;;;;;;5046418;28;20072;-71
2023/08/05 12:48:37;;;;;;;7.68;4.07;;;19.10;99.90;;;;;;5050677;28;20072;-71